sensor_id;sensor_type;location;lat;lon;timestamp;pressure;altitude;pressure_sealevel;temperature;humidity
6942;BME280;3510;43.200;27.920;2022-11-09T00:00:01;101786.28;;;20.02;48.05
6942;BME280;3510;43.200;27.920;2022-11-09T00:02:28;101789.69;;;20.16;47.77
6942;BME280;3510;43.200;27.920;2022-11-09T00:04:56;101788.41;;;20.50;47.23
6942;BME280;3510;43.200;27.920;2022-11-09T00:07:23;101797.47;;;20.17;47.98
6942;BME280;3510;43.200;27.920;2022-11-09T00:09:49;101801.94;;;19.14;50.40
6942;BME280;3510;43.200;27.920;2022-11-09T00:12:16;101791.97;;;19.43;49.88
6942;BME280;3510;43.200;27.920;2022-11-09T00:14:43;101795.06;;;19.92;48.82
6942;BME280;3510;43.200;27.920;2022-11-09T00:17:09;101794.13;;;19.77;48.82
6942;BME280;3510;43.200;27.920;2022-11-09T00:19:36;101798.84;;;20.12;48.40
6942;BME280;3510;43.200;27.920;2022-11-09T00:22:05;101792.16;;;20.42;47.96
6942;BME280;3510;43.200;27.920;2022-11-09T00:24:32;101797.16;;;19.45;50.09
6942;BME280;3510;43.200;27.920;2022-11-09T00:26:59;101792.94;;;19.32;50.31
6942;BME280;3510;43.200;27.920;2022-11-09T00:29:26;101798.03;;;19.32;50.39
6942;BME280;3510;43.200;27.920;2022-11-09T00:31:53;101796.00;;;19.66;49.39
6942;BME280;3510;43.200;27.920;2022-11-09T00:34:20;101787.22;;;19.49;49.74
6942;BME280;3510;43.200;27.920;2022-11-09T00:36:47;101786.72;;;19.15;50.77
6942;BME280;3510;43.200;27.920;2022-11-09T00:39:15;101790.72;;;18.85;51.46
6942;BME280;3510;43.200;27.920;2022-11-09T00:41:42;101793.25;;;18.98;50.34
6942;BME280;3510;43.200;27.920;2022-11-09T00:44:08;101786.84;;;19.43;49.49
6942;BME280;3510;43.200;27.920;2022-11-09T00:46:35;101784.31;;;19.70;48.19
6942;BME280;3510;43.200;27.920;2022-11-09T00:49:02;101782.38;;;19.94;47.83
6942;BME280;3510;43.200;27.920;2022-11-09T00:51:29;101782.53;;;19.55;48.41
6942;BME280;3510;43.200;27.920;2022-11-09T00:53:56;101787.50;;;19.94;47.76
6942;BME280;3510;43.200;27.920;2022-11-09T00:56:24;101785.38;;;20.15;47.21
6942;BME280;3510;43.200;27.920;2022-11-09T00:58:51;101786.53;;;19.92;47.57
6942;BME280;3510;43.200;27.920;2022-11-09T01:01:18;101789.31;;;19.68;48.23
6942;BME280;3510;43.200;27.920;2022-11-09T01:03:45;101786.34;;;19.75;47.91
6942;BME280;3510;43.200;27.920;2022-11-09T01:06:13;101784.69;;;20.17;46.69
6942;BME280;3510;43.200;27.920;2022-11-09T01:08:40;101782.09;;;20.59;46.00
6942;BME280;3510;43.200;27.920;2022-11-09T01:11:08;101782.22;;;20.19;46.80
6942;BME280;3510;43.200;27.920;2022-11-09T01:13:36;101782.44;;;20.65;45.85
6942;BME280;3510;43.200;27.920;2022-11-09T01:16:05;101775.75;;;20.39;46.29
6942;BME280;3510;43.200;27.920;2022-11-09T01:18:32;101781.41;;;20.76;45.53
6942;BME280;3510;43.200;27.920;2022-11-09T01:21:00;101785.63;;;20.61;45.87
6942;BME280;3510;43.200;27.920;2022-11-09T01:23:27;101783.72;;;20.43;46.03
6942;BME280;3510;43.200;27.920;2022-11-09T01:25:56;101780.34;;;20.87;45.24
6942;BME280;3510;43.200;27.920;2022-11-09T01:28:33;101783.50;;;20.68;45.57
6942;BME280;3510;43.200;27.920;2022-11-09T01:31:02;101777.78;;;20.87;45.29
6942;BME280;3510;43.200;27.920;2022-11-09T01:33:30;101781.41;;;21.35;44.38
6942;BME280;3510;43.200;27.920;2022-11-09T01:36:00;101790.69;;;21.33;44.23
6942;BME280;3510;43.200;27.920;2022-11-09T01:38:27;101783.41;;;20.39;46.29
6942;BME280;3510;43.200;27.920;2022-11-09T01:40:53;101777.50;;;20.68;45.81
6942;BME280;3510;43.200;27.920;2022-11-09T01:43:21;101790.06;;;20.78;45.42
6942;BME280;3510;43.200;27.920;2022-11-09T01:45:49;101789.81;;;21.18;44.79
6942;BME280;3510;43.200;27.920;2022-11-09T01:48:20;101783.69;;;21.31;44.63
6942;BME280;3510;43.200;27.920;2022-11-09T01:50:50;101784.25;;;20.95;45.53
6942;BME280;3510;43.200;27.920;2022-11-09T01:53:19;101786.69;;;21.09;45.04
6942;BME280;3510;43.200;27.920;2022-11-09T01:55:49;101779.38;;;21.00;45.39
6942;BME280;3510;43.200;27.920;2022-11-09T01:58:19;101784.13;;;21.09;45.59
6942;BME280;3510;43.200;27.920;2022-11-09T02:00:48;101784.94;;;20.93;45.73
6942;BME280;3510;43.200;27.920;2022-11-09T02:03:17;101771.88;;;21.18;44.99
6942;BME280;3510;43.200;27.920;2022-11-09T02:05:46;101782.31;;;20.91;45.61
6942;BME280;3510;43.200;27.920;2022-11-09T02:08:14;101787.41;;;21.06;45.26
6942;BME280;3510;43.200;27.920;2022-11-09T02:10:44;101778.84;;;20.33;46.81
6942;BME280;3510;43.200;27.920;2022-11-09T02:13:13;101783.31;;;20.65;46.09
6942;BME280;3510;43.200;27.920;2022-11-09T02:15:42;101780.84;;;20.52;46.25
6942;BME280;3510;43.200;27.920;2022-11-09T02:18:09;101778.03;;;20.34;46.96
6942;BME280;3510;43.200;27.920;2022-11-09T02:20:47;101779.03;;;20.36;47.07
6942;BME280;3510;43.200;27.920;2022-11-09T02:23:15;101789.47;;;20.26;47.10
6942;BME280;3510;43.200;27.920;2022-11-09T02:25:42;101787.13;;;20.72;46.33
6942;BME280;3510;43.200;27.920;2022-11-09T02:28:10;101783.81;;;21.02;45.72
6942;BME280;3510;43.200;27.920;2022-11-09T02:30:37;101788.03;;;20.44;46.93
6942;BME280;3510;43.200;27.920;2022-11-09T02:33:05;101782.72;;;19.85;48.28
6942;BME280;3510;43.200;27.920;2022-11-09T02:35:31;101791.66;;;20.20;47.38
6942;BME280;3510;43.200;27.920;2022-11-09T02:37:59;101775.47;;;20.34;47.08
6942;BME280;3510;43.200;27.920;2022-11-09T02:40:27;101784.63;;;20.30;47.06
6942;BME280;3510;43.200;27.920;2022-11-09T02:42:56;101783.09;;;20.19;47.07
6942;BME280;3510;43.200;27.920;2022-11-09T02:45:24;101784.28;;;19.56;48.60
6942;BME280;3510;43.200;27.920;2022-11-09T02:47:51;101787.94;;;19.47;48.99
6942;BME280;3510;43.200;27.920;2022-11-09T02:50:18;101779.81;;;19.94;47.79
6942;BME280;3510;43.200;27.920;2022-11-09T02:52:45;101770.91;;;20.28;47.16
6942;BME280;3510;43.200;27.920;2022-11-09T02:55:13;101775.47;;;20.34;46.87
6942;BME280;3510;43.200;27.920;2022-11-09T02:57:40;101784.03;;;20.63;46.43
6942;BME280;3510;43.200;27.920;2022-11-09T03:00:07;101781.41;;;20.76;46.29
6942;BME280;3510;43.200;27.920;2022-11-09T03:02:34;101775.13;;;20.71;46.21
6942;BME280;3510;43.200;27.920;2022-11-09T03:05:01;101784.66;;;20.02;48.23
6942;BME280;3510;43.200;27.920;2022-11-09T03:07:28;101786.75;;;20.10;48.28
6942;BME280;3510;43.200;27.920;2022-11-09T03:09:54;101792.66;;;19.67;48.93
6942;BME280;3510;43.200;27.920;2022-11-09T03:12:22;101785.88;;;19.54;49.33
6942;BME280;3510;43.200;27.920;2022-11-09T03:15:04;101781.31;;;19.50;49.67
6942;BME280;3510;43.200;27.920;2022-11-09T03:17:37;101778.19;;;19.81;48.97
6942;BME280;3510;43.200;27.920;2022-11-09T03:20:05;101786.06;;;19.84;48.95
6942;BME280;3510;43.200;27.920;2022-11-09T03:22:32;101785.88;;;19.54;49.80
6942;BME280;3510;43.200;27.920;2022-11-09T03:24:59;101777.13;;;20.05;48.72
6942;BME280;3510;43.200;27.920;2022-11-09T03:27:27;101783.56;;;20.27;48.00
6942;BME280;3510;43.200;27.920;2022-11-09T03:29:54;101780.31;;;20.58;47.21
6942;BME280;3510;43.200;27.920;2022-11-09T03:32:21;101779.03;;;20.94;46.38
6942;BME280;3510;43.200;27.920;2022-11-09T03:34:48;101778.84;;;20.33;47.77
6942;BME280;3510;43.200;27.920;2022-11-09T03:37:15;101783.81;;;20.88;46.80
6942;BME280;3510;43.200;27.920;2022-11-09T03:39:42;101784.00;;;19.78;48.43
6942;BME280;3510;43.200;27.920;2022-11-09T03:42:09;101783.78;;;19.89;48.51
6942;BME280;3510;43.200;27.920;2022-11-09T03:44:37;101784.34;;;19.98;48.19
6942;BME280;3510;43.200;27.920;2022-11-09T03:47:04;101776.00;;;20.28;47.79
6942;BME280;3510;43.200;27.920;2022-11-09T03:49:30;101782.81;;;20.43;47.30
6942;BME280;3510;43.200;27.920;2022-11-09T03:51:57;101769.53;;;20.20;47.50
6942;BME280;3510;43.200;27.920;2022-11-09T03:54:24;101773.53;;;20.58;46.99
6942;BME280;3510;43.200;27.920;2022-11-09T03:56:50;101772.59;;;20.71;46.52
6942;BME280;3510;43.200;27.920;2022-11-09T03:59:17;101776.66;;;20.97;45.73
6942;BME280;3510;43.200;27.920;2022-11-09T04:01:45;101777.63;;;20.84;45.94
6942;BME280;3510;43.200;27.920;2022-11-09T04:04:12;101786.69;;;21.09;45.43
6942;BME280;3510;43.200;27.920;2022-11-09T04:06:39;101786.00;;;21.26;45.31
6942;BME280;3510;43.200;27.920;2022-11-09T04:09:06;101786.00;;;21.11;45.62
6942;BME280;3510;43.200;27.920;2022-11-09T04:11:32;101781.94;;;20.85;46.07
6942;BME280;3510;43.200;27.920;2022-11-09T04:13:59;101786.81;;;21.25;45.41
6942;BME280;3510;43.200;27.920;2022-11-09T04:16:26;101785.81;;;21.08;45.67
6942;BME280;3510;43.200;27.920;2022-11-09T04:18:54;101784.50;;;21.15;45.67
6942;BME280;3510;43.200;27.920;2022-11-09T04:21:21;101781.16;;;20.86;46.16
6942;BME280;3510;43.200;27.920;2022-11-09T04:23:47;101779.78;;;20.35;47.60
6942;BME280;3510;43.200;27.920;2022-11-09T04:26:14;101779.19;;;20.39;47.68
6942;BME280;3510;43.200;27.920;2022-11-09T04:28:41;101792.66;;;20.09;48.47
6942;BME280;3510;43.200;27.920;2022-11-09T04:31:08;101787.31;;;19.91;48.92
6942;BME280;3510;43.200;27.920;2022-11-09T04:33:34;101785.63;;;20.61;47.75
6942;BME280;3510;43.200;27.920;2022-11-09T04:36:03;101786.00;;;20.82;47.31
6942;BME280;3510;43.200;27.920;2022-11-09T04:38:30;101784.31;;;20.82;46.98
6942;BME280;3510;43.200;27.920;2022-11-09T04:40:59;101795.69;;;21.02;46.58
6942;BME280;3510;43.200;27.920;2022-11-09T04:43:25;101794.81;;;21.16;46.41
6942;BME280;3510;43.200;27.920;2022-11-09T04:45:52;101801.38;;;21.11;46.39
6942;BME280;3510;43.200;27.920;2022-11-09T04:48:19;101797.81;;;21.24;46.18
6942;BME280;3510;43.200;27.920;2022-11-09T04:50:45;101802.50;;;21.16;46.28
6942;BME280;3510;43.200;27.920;2022-11-09T04:53:13;101800.56;;;20.97;46.76
6942;BME280;3510;43.200;27.920;2022-11-09T04:55:40;101805.94;;;20.87;46.75
6942;BME280;3510;43.200;27.920;2022-11-09T04:58:07;101801.03;;;20.34;48.23
6942;BME280;3510;43.200;27.920;2022-11-09T05:00:34;101813.56;;;19.88;49.36
6942;BME280;3510;43.200;27.920;2022-11-09T05:03:01;101811.63;;;19.71;49.98
6942;BME280;3510;43.200;27.920;2022-11-09T05:05:28;101813.50;;;19.08;51.50
6942;BME280;3510;43.200;27.920;2022-11-09T05:07:55;101813.06;;;19.41;51.08
6942;BME280;3510;43.200;27.920;2022-11-09T05:10:23;101818.47;;;19.72;50.32
6942;BME280;3510;43.200;27.920;2022-11-09T05:12:49;101819.34;;;19.99;49.66
6942;BME280;3510;43.200;27.920;2022-11-09T05:15:22;101821.78;;;20.11;49.11
6942;BME280;3510;43.200;27.920;2022-11-09T05:17:48;101822.47;;;20.49;48.21
6942;BME280;3510;43.200;27.920;2022-11-09T05:20:29;101828.34;;;20.48;48.47
6942;BME280;3510;43.200;27.920;2022-11-09T05:23:10;101829.41;;;21.10;46.89
6942;BME280;3510;43.200;27.920;2022-11-09T05:25:55;101830.66;;;20.30;48.02
6942;BME280;3510;43.200;27.920;2022-11-09T05:28:22;101840.47;;;20.51;47.70
6942;BME280;3510;43.200;27.920;2022-11-09T05:30:48;101838.00;;;20.39;47.48
6942;BME280;3510;43.200;27.920;2022-11-09T05:33:15;101844.50;;;20.06;48.48
6942;BME280;3510;43.200;27.920;2022-11-09T05:35:42;101842.84;;;19.93;48.64
6942;BME280;3510;43.200;27.920;2022-11-09T05:38:09;101841.75;;;20.03;48.34
6942;BME280;3510;43.200;27.920;2022-11-09T05:40:36;101848.75;;;20.34;47.80
6942;BME280;3510;43.200;27.920;2022-11-09T05:43:04;101855.47;;;20.60;46.91
6942;BME280;3510;43.200;27.920;2022-11-09T05:45:31;101859.72;;;20.59;46.68
6942;BME280;3510;43.200;27.920;2022-11-09T05:47:57;101853.00;;;20.33;47.43
6942;BME280;3510;43.200;27.920;2022-11-09T05:50:24;101859.50;;;20.69;46.55
6942;BME280;3510;43.200;27.920;2022-11-09T05:52:51;101864.56;;;20.97;45.60
6942;BME280;3510;43.200;27.920;2022-11-09T05:55:18;101864.75;;;21.00;45.58
6942;BME280;3510;43.200;27.920;2022-11-09T05:57:45;101867.66;;;20.64;46.35
6942;BME280;3510;43.200;27.920;2022-11-09T06:00:14;101874.25;;;20.19;47.55
6942;BME280;3510;43.200;27.920;2022-11-09T06:02:41;101870.56;;;20.55;46.79
6942;BME280;3510;43.200;27.920;2022-11-09T06:05:08;101875.56;;;19.99;48.25
6942;BME280;3510;43.200;27.920;2022-11-09T06:07:35;101883.16;;;19.46;49.39
6942;BME280;3510;43.200;27.920;2022-11-09T06:10:01;101885.69;;;20.11;48.13
6942;BME280;3510;43.200;27.920;2022-11-09T06:12:28;101878.38;;;20.86;46.49
6942;BME280;3510;43.200;27.920;2022-11-09T06:14:55;101882.91;;;20.90;45.95
6942;BME280;3510;43.200;27.920;2022-11-09T06:17:23;101882.75;;;21.17;45.29
6942;BME280;3510;43.200;27.920;2022-11-09T06:19:50;101880.91;;;21.14;45.69
6942;BME280;3510;43.200;27.920;2022-11-09T06:22:17;101882.94;;;21.20;45.42
6942;BME280;3510;43.200;27.920;2022-11-09T06:24:57;101887.97;;;20.75;46.30
6942;BME280;3510;43.200;27.920;2022-11-09T06:27:38;101880.38;;;20.36;47.37
6942;BME280;3510;43.200;27.920;2022-11-09T06:30:05;101889.50;;;20.04;47.82
6942;BME280;3510;43.200;27.920;2022-11-09T06:32:33;101891.63;;;20.38;47.46
6942;BME280;3510;43.200;27.920;2022-11-09T06:35:14;101897.53;;;20.37;47.29
6942;BME280;3510;43.200;27.920;2022-11-09T06:37:55;101894.31;;;20.95;45.79
6942;BME280;3510;43.200;27.920;2022-11-09T06:40:35;101897.38;;;20.90;46.08
6942;BME280;3510;43.200;27.920;2022-11-09T06:43:03;101896.88;;;20.95;45.78
6942;BME280;3510;43.200;27.920;2022-11-09T06:45:43;101899.59;;;21.56;44.55
6942;BME280;3510;43.200;27.920;2022-11-09T06:48:11;101897.97;;;21.29;45.06
6942;BME280;3510;43.200;27.920;2022-11-09T06:50:52;101895.97;;;20.95;45.65
6942;BME280;3510;43.200;27.920;2022-11-09T06:53:33;101897.31;;;20.47;46.85
6942;BME280;3510;43.200;27.920;2022-11-09T06:56:02;101907.06;;;20.52;46.82
6942;BME280;3510;43.200;27.920;2022-11-09T06:58:44;101904.34;;;20.64;46.75
6942;BME280;3510;43.200;27.920;2022-11-09T07:01:11;101904.91;;;20.32;47.20
6942;BME280;3510;43.200;27.920;2022-11-09T07:03:39;101904.16;;;21.17;45.77
6942;BME280;3510;43.200;27.920;2022-11-09T07:06:06;101902.00;;;21.10;45.64
6942;BME280;3510;43.200;27.920;2022-11-09T07:08:47;101910.72;;;21.42;45.01
6942;BME280;3510;43.200;27.920;2022-11-09T07:11:27;101914.94;;;21.56;44.83
6942;BME280;3510;43.200;27.920;2022-11-09T07:14:08;101911.94;;;21.48;44.58
6942;BME280;3510;43.200;27.920;2022-11-09T07:16:48;101903.94;;;20.99;45.76
6942;BME280;3510;43.200;27.920;2022-11-09T07:24:53;101910.94;;;19.79;48.58
6942;BME280;3510;43.200;27.920;2022-11-09T07:27:20;101912.88;;;20.37;47.58
6942;BME280;3510;43.200;27.920;2022-11-09T07:29:47;101911.03;;;19.94;48.55
6942;BME280;3510;43.200;27.920;2022-11-09T07:32:14;101911.31;;;20.95;46.47
6942;BME280;3510;43.200;27.920;2022-11-09T07:34:54;101903.09;;;21.14;45.98
6942;BME280;3510;43.200;27.920;2022-11-09T07:37:35;101909.25;;;21.02;46.22
6942;BME280;3510;43.200;27.920;2022-11-09T07:51:59;101897.09;;;20.57;47.09
6942;BME280;3510;43.200;27.920;2022-11-09T07:54:25;101904.13;;;20.74;47.00
6942;BME280;3510;43.200;27.920;2022-11-09T07:56:52;101909.00;;;21.27;45.79
6942;BME280;3510;43.200;27.920;2022-11-09T07:59:19;101908.25;;;21.43;45.82
6942;BME280;3510;43.200;27.920;2022-11-09T08:01:59;101910.84;;;21.30;46.08
6942;BME280;3510;43.200;27.920;2022-11-09T08:04:26;101917.84;;;22.54;43.78
6942;BME280;3510;43.200;27.920;2022-11-09T08:06:53;101906.78;;;22.88;42.75
6942;BME280;3510;43.200;27.920;2022-11-09T08:09:21;101923.38;;;22.45;43.66
6942;BME280;3510;43.200;27.920;2022-11-09T08:11:48;101922.41;;;22.43;43.61
6942;BME280;3510;43.200;27.920;2022-11-09T08:14:15;101921.16;;;22.84;43.09
6942;BME280;3510;43.200;27.920;2022-11-09T08:16:42;101914.28;;;23.34;41.98
6942;BME280;3510;43.200;27.920;2022-11-09T08:19:09;101917.72;;;23.00;42.61
6942;BME280;3510;43.200;27.920;2022-11-09T08:21:36;101920.41;;;22.87;42.76
6942;BME280;3510;43.200;27.920;2022-11-09T08:24:03;101922.00;;;22.68;43.49
6942;BME280;3510;43.200;27.920;2022-11-09T08:26:32;101927.09;;;22.36;43.84
6942;BME280;3510;43.200;27.920;2022-11-09T08:28:59;101918.47;;;22.50;43.95
6942;BME280;3510;43.200;27.920;2022-11-09T08:31:26;101925.94;;;22.45;43.91
6942;BME280;3510;43.200;27.920;2022-11-09T08:33:53;101916.00;;;23.17;42.74
6942;BME280;3510;43.200;27.920;2022-11-09T08:36:20;101918.56;;;23.33;42.00
6942;BME280;3510;43.200;27.920;2022-11-09T08:38:50;101918.59;;;24.23;40.36
6942;BME280;3510;43.200;27.920;2022-11-09T08:41:16;101919.47;;;24.23;39.90
6942;BME280;3510;43.200;27.920;2022-11-09T08:43:44;101911.09;;;24.45;39.56
6942;BME280;3510;43.200;27.920;2022-11-09T08:46:11;101913.84;;;25.27;38.32
6942;BME280;3510;43.200;27.920;2022-11-09T08:48:38;101910.63;;;24.93;38.70
6942;BME280;3510;43.200;27.920;2022-11-09T08:51:04;101912.97;;;25.90;37.61
6942;BME280;3510;43.200;27.920;2022-11-09T08:53:31;101917.50;;;25.74;37.50
6942;BME280;3510;43.200;27.920;2022-11-09T08:55:58;101923.28;;;25.90;37.56
6942;BME280;3510;43.200;27.920;2022-11-09T08:58:25;101919.09;;;26.14;36.81
6942;BME280;3510;43.200;27.920;2022-11-09T09:00:53;101925.63;;;25.83;37.29
6942;BME280;3510;43.200;27.920;2022-11-09T09:03:20;101920.88;;;25.31;37.90
6942;BME280;3510;43.200;27.920;2022-11-09T09:05:46;101923.63;;;25.36;38.41
6942;BME280;3510;43.200;27.920;2022-11-09T09:08:13;101921.78;;;25.13;39.65
6942;BME280;3510;43.200;27.920;2022-11-09T09:10:42;101918.97;;;25.69;38.62
6942;BME280;3510;43.200;27.920;2022-11-09T09:13:09;101915.84;;;26.89;36.44
6942;BME280;3510;43.200;27.920;2022-11-09T09:15:36;101919.88;;;27.06;36.22
6942;BME280;3510;43.200;27.920;2022-11-09T09:18:04;101912.34;;;26.88;35.94
6942;BME280;3510;43.200;27.920;2022-11-09T09:20:31;101927.31;;;26.49;36.80
6942;BME280;3510;43.200;27.920;2022-11-09T09:22:58;101919.06;;;27.07;36.20
6942;BME280;3510;43.200;27.920;2022-11-09T09:25:38;101919.53;;;27.46;35.57
6942;BME280;3510;43.200;27.920;2022-11-09T09:28:05;101920.00;;;26.61;36.70
6942;BME280;3510;43.200;27.920;2022-11-09T09:30:32;101859.31;;;26.50;36.99
6942;BME280;3510;43.200;27.920;2022-11-09T09:33:00;101903.28;;;26.75;36.82
6942;BME280;3510;43.200;27.920;2022-11-09T09:35:28;101914.53;;;25.65;38.04
6942;BME280;3510;43.200;27.920;2022-11-09T09:37:55;101913.72;;;26.10;38.32
6942;BME280;3510;43.200;27.920;2022-11-09T09:40:25;101884.88;;;25.76;38.59
6942;BME280;3510;43.200;27.920;2022-11-09T09:42:55;101911.03;;;25.63;39.00
6942;BME280;3510;43.200;27.920;2022-11-09T09:45:26;101897.59;;;25.93;38.41
6942;BME280;3510;43.200;27.920;2022-11-09T09:47:59;101904.19;;;26.29;37.80
6942;BME280;3510;43.200;27.920;2022-11-09T09:50:31;101906.56;;;26.70;37.53
6942;BME280;3510;43.200;27.920;2022-11-09T09:53:10;101904.50;;;26.39;37.93
6942;BME280;3510;43.200;27.920;2022-11-09T09:55:42;101896.53;;;25.88;38.41
6942;BME280;3510;43.200;27.920;2022-11-09T09:58:13;101899.59;;;26.22;38.28
6942;BME280;3510;43.200;27.920;2022-11-09T10:00:43;101892.97;;;25.63;39.21
6942;BME280;3510;43.200;27.920;2022-11-09T10:03:16;101894.47;;;25.79;38.89
6942;BME280;3510;43.200;27.920;2022-11-09T10:05:54;101869.81;;;25.86;38.51
6942;BME280;3510;43.200;27.920;2022-11-09T10:08:29;101882.91;;;25.27;39.88
6942;BME280;3510;43.200;27.920;2022-11-09T10:11:08;101849.91;;;25.19;39.93
6942;BME280;3510;43.200;27.920;2022-11-09T10:13:50;101887.16;;;25.90;39.48
6942;BME280;3510;43.200;27.920;2022-11-09T10:16:26;101880.06;;;25.63;39.65
6942;BME280;3510;43.200;27.920;2022-11-09T10:19:15;101888.25;;;25.74;39.35
6942;BME280;3510;43.200;27.920;2022-11-09T10:21:49;101877.22;;;25.78;38.31
6942;BME280;3510;43.200;27.920;2022-11-09T10:24:26;101860.19;;;25.81;38.02
6942;BME280;3510;43.200;27.920;2022-11-09T10:26:58;101859.59;;;25.24;39.12
6942;BME280;3510;43.200;27.920;2022-11-09T10:29:26;101863.88;;;26.33;37.23
6942;BME280;3510;43.200;27.920;2022-11-09T10:31:58;101859.47;;;26.54;37.06
6942;BME280;3510;43.200;27.920;2022-11-09T10:34:29;101873.75;;;26.93;36.79
6942;BME280;3510;43.200;27.920;2022-11-09T10:37:04;101865.75;;;26.85;36.73
6942;BME280;3510;43.200;27.920;2022-11-09T10:39:41;101864.88;;;25.92;37.71
6942;BME280;3510;43.200;27.920;2022-11-09T10:42:10;101857.78;;;25.02;39.81
6942;BME280;3510;43.200;27.920;2022-11-09T10:44:38;101867.38;;;24.85;39.83
6942;BME280;3510;43.200;27.920;2022-11-09T10:47:07;101870.72;;;25.23;39.14
6942;BME280;3510;43.200;27.920;2022-11-09T10:49:35;101866.00;;;25.98;37.76
6942;BME280;3510;43.200;27.920;2022-11-09T10:52:04;101877.13;;;25.76;38.02
6942;BME280;3510;43.200;27.920;2022-11-09T10:54:34;101837.84;;;26.28;36.62
6942;BME280;3510;43.200;27.920;2022-11-09T10:57:11;101857.44;;;26.94;36.15
6942;BME280;3510;43.200;27.920;2022-11-09T10:59:44;101819.34;;;25.71;37.32
6942;BME280;3510;43.200;27.920;2022-11-09T11:02:45;101844.66;;;26.49;36.83
6942;BME280;3510;43.200;27.920;2022-11-09T11:05:31;101844.25;;;24.87;39.53
6942;BME280;3510;43.200;27.920;2022-11-09T11:08:19;101844.88;;;24.81;39.85
6942;BME280;3510;43.200;27.920;2022-11-09T11:10:46;101842.28;;;23.50;41.63
6942;BME280;3510;43.200;27.920;2022-11-09T11:13:20;101856.88;;;24.42;40.86
6942;BME280;3510;43.200;27.920;2022-11-09T11:15:47;101863.00;;;25.88;37.97
6942;BME280;3510;43.200;27.920;2022-11-09T11:18:18;101823.72;;;26.41;36.49
6942;BME280;3510;43.200;27.920;2022-11-09T11:20:47;101847.66;;;26.37;36.66
6942;BME280;3510;43.200;27.920;2022-11-09T11:23:17;101851.00;;;26.35;36.81
6942;BME280;3510;43.200;27.920;2022-11-09T11:25:59;101846.13;;;25.96;37.16
6942;BME280;3510;43.200;27.920;2022-11-09T11:28:34;101828.91;;;26.19;36.07
6942;BME280;3510;43.200;27.920;2022-11-09T11:31:11;101823.31;;;25.41;37.76
6942;BME280;3510;43.200;27.920;2022-11-09T11:33:52;101816.06;;;25.53;37.33
6942;BME280;3510;43.200;27.920;2022-11-09T11:36:48;101826.75;;;24.59;39.36
6942;BME280;3510;43.200;27.920;2022-11-09T11:42:52;101833.88;;;26.37;36.34
6942;BME280;3510;43.200;27.920;2022-11-09T11:45:40;101839.13;;;26.88;35.61
6942;BME280;3510;43.200;27.920;2022-11-09T11:48:28;101829.72;;;26.64;35.91
6942;BME280;3510;43.200;27.920;2022-11-09T11:51:17;101805.38;;;26.34;35.50
6942;BME280;3510;43.200;27.920;2022-11-09T11:53:57;101830.31;;;26.33;35.89
6942;BME280;3510;43.200;27.920;2022-11-09T11:56:31;101840.06;;;24.31;39.15
6942;BME280;3510;43.200;27.920;2022-11-09T12:08:31;101818.94;;;25.81;36.08
6942;BME280;3510;43.200;27.920;2022-11-09T12:11:10;101830.28;;;26.09;35.79
6942;BME280;3510;43.200;27.920;2022-11-09T12:19:20;101832.84;;;26.09;36.05
6942;BME280;3510;43.200;27.920;2022-11-09T12:24:51;101795.56;;;23.23;40.89
6942;BME280;3510;43.200;27.920;2022-11-09T12:27:32;101848.94;;;22.78;41.74
6942;BME280;3510;43.200;27.920;2022-11-09T12:30:11;101829.72;;;23.38;41.34
6942;BME280;3510;43.200;27.920;2022-11-09T12:32:45;101808.88;;;24.25;39.32
6942;BME280;3510;43.200;27.920;2022-11-09T12:35:24;101826.53;;;24.95;38.48
6942;BME280;3510;43.200;27.920;2022-11-09T12:38:03;101835.28;;;24.77;38.25
6942;BME280;3510;43.200;27.920;2022-11-09T12:40:36;101827.41;;;24.95;37.95
6942;BME280;3510;43.200;27.920;2022-11-09T12:43:12;101832.38;;;25.31;37.52
6942;BME280;3510;43.200;27.920;2022-11-09T12:45:43;101853.63;;;25.90;36.75
6942;BME280;3510;43.200;27.920;2022-11-09T12:48:21;101839.91;;;25.91;36.34
6942;BME280;3510;43.200;27.920;2022-11-09T12:50:50;101825.38;;;25.93;36.61
6942;BME280;3510;43.200;27.920;2022-11-09T12:53:21;101851.50;;;26.02;36.34
6942;BME280;3510;43.200;27.920;2022-11-09T12:55:54;101835.84;;;25.10;37.25
6942;BME280;3510;43.200;27.920;2022-11-09T12:58:27;101850.78;;;25.40;37.39
6942;BME280;3510;43.200;27.920;2022-11-09T13:01:04;101834.31;;;25.16;36.87
6942;BME280;3510;43.200;27.920;2022-11-09T13:03:35;101816.91;;;25.10;37.09
6942;BME280;3510;43.200;27.920;2022-11-09T13:06:15;101826.59;;;24.75;38.06
6942;BME280;3510;43.200;27.920;2022-11-09T13:08:55;101837.66;;;25.13;37.05
6942;BME280;3510;43.200;27.920;2022-11-09T13:11:36;101819.75;;;25.59;35.93
6942;BME280;3510;43.200;27.920;2022-11-09T13:14:33;101846.44;;;25.81;35.79
6942;BME280;3510;43.200;27.920;2022-11-09T13:17:49;101851.91;;;25.47;36.48
6942;BME280;3510;43.200;27.920;2022-11-09T13:19:56;101849.25;;;25.66;35.62
6942;BME280;3510;43.200;27.920;2022-11-09T13:22:57;101850.25;;;25.70;36.28
6942;BME280;3510;43.200;27.920;2022-11-09T13:25:49;101824.66;;;25.53;36.38
6942;BME280;3510;43.200;27.920;2022-11-09T13:32:25;101849.03;;;24.58;38.00
6942;BME280;3510;43.200;27.920;2022-11-09T13:35:02;101854.69;;;25.30;36.83
6942;BME280;3510;43.200;27.920;2022-11-09T13:37:54;101845.06;;;24.28;38.81
6942;BME280;3510;43.200;27.920;2022-11-09T13:43:00;101852.63;;;25.22;37.31
6942;BME280;3510;43.200;27.920;2022-11-09T13:45:33;101855.69;;;25.34;37.04
6942;BME280;3510;43.200;27.920;2022-11-09T13:48:05;101808.88;;;24.83;37.11
6942;BME280;3510;43.200;27.920;2022-11-09T13:50:38;101826.19;;;24.47;37.80
6942;BME280;3510;43.200;27.920;2022-11-09T13:53:26;101845.22;;;24.50;38.43
6942;BME280;3510;43.200;27.920;2022-11-09T13:56:19;101830.22;;;24.80;37.80
6942;BME280;3510;43.200;27.920;2022-11-09T14:01:48;101799.66;;;24.48;38.04
6942;BME280;3510;43.200;27.920;2022-11-09T14:04:28;101835.38;;;24.80;37.83
6942;BME280;3510;43.200;27.920;2022-11-09T14:09:37;101829.44;;;23.86;39.25